Time;durP1;ratioP1;P1;durP2;ratioP2;P2;SDS_P1;SDS_P2;PMS_P1;PMS_P2;Temp;Humidity;BMP_temperature;BMP_pressure;BME280_temperature;BME280_humidity;BME280_pressure;Samples;Min_cycle;Max_cycle;Signal;HPM_P1;HPM_P2
2023/06/17 00:00:08;;;;;;;5.38;3.67;;;13.50;99.90;;;;;;5078972;28;20197;-83
2023/06/17 00:02:43;;;;;;;7.97;4.25;;;13.50;99.90;;;;;;5095828;28;20282;-83
2023/06/17 00:05:15;;;;;;;6.80;3.97;;;13.60;99.90;;;;;;5091974;28;20278;-83
2023/06/17 00:07:49;;;;;;;5.75;3.53;;;13.80;99.90;;;;;;5052272;28;20682;-83
2023/06/17 00:10:20;;;;;;;7.28;4.32;;;13.90;99.90;;;;;;5066050;28;20216;-83
2023/06/17 00:12:54;;;;;;;5.70;3.72;;;14.00;99.90;;;;;;5071194;28;20238;-83
2023/06/17 00:15:25;;;;;;;5.15;3.72;;;14.20;99.90;;;;;;5071955;28;20234;-84
2023/06/17 00:17:56;;;;;;;8.75;4.45;;;14.30;99.90;;;;;;5072489;28;20195;-85
2023/06/17 00:20:29;;;;;;;7.00;3.90;;;14.40;99.90;;;;;;5072555;28;20245;-83
2023/06/17 00:23:00;;;;;;;8.55;4.22;;;14.40;99.90;;;;;;5055057;28;20207;-83
2023/06/17 00:25:31;;;;;;;7.25;4.10;;;14.50;99.90;;;;;;5086947;28;20195;-84
2023/06/17 00:28:04;;;;;;;6.43;4.22;;;14.50;99.90;;;;;;5071124;28;20254;-83
2023/06/17 00:30:35;;;;;;;11.27;4.20;;;14.70;99.90;;;;;;5071265;28;20235;-84
2023/06/17 00:33:06;;;;;;;8.75;4.28;;;14.70;99.90;;;;;;5071121;28;20184;-83
2023/06/17 00:35:38;;;;;;;6.00;4.15;;;14.80;99.90;;;;;;5077345;28;20714;-83
2023/06/17 00:38:09;;;;;;;8.13;4.80;;;14.90;99.90;;;;;;5091870;28;20203;-84
2023/06/17 00:40:40;;;;;;;7.40;4.43;;;14.90;99.90;;;;;;5076680;28;20216;-83
2023/06/17 00:43:15;;;;;;;8.90;4.30;;;15.00;99.90;;;;;;5071746;28;20267;-83
2023/06/17 00:45:46;;;;;;;8.40;4.35;;;15.20;99.90;;;;;;5072247;28;20192;-84
2023/06/17 00:48:17;;;;;;;7.32;4.20;;;15.30;99.90;;;;;;5071401;28;20184;-84
2023/06/17 00:50:49;;;;;;;8.40;4.32;;;15.30;99.90;;;;;;5074919;28;20216;-83
2023/06/17 00:53:21;;;;;;;7.80;3.83;;;15.40;99.90;;;;;;5071370;28;20654;-83
2023/06/17 00:55:52;;;;;;;6.40;4.28;;;15.40;99.90;;;;;;5074299;28;20243;-83
2023/06/17 00:58:25;;;;;;;5.63;4.13;;;15.30;99.90;;;;;;5074497;28;20192;-83
2023/06/17 01:00:56;;;;;;;6.25;4.10;;;15.50;99.90;;;;;;5098742;28;20187;-84
2023/06/17 01:03:29;;;;;;;10.88;4.60;;;15.60;99.90;;;;;;5086630;28;20210;-83
2023/06/17 01:06:05;;;;;;;5.75;4.05;;;15.50;99.90;;;;;;5077043;28;20234;-84
2023/06/17 01:08:42;;;;;;;8.15;4.10;;;15.60;99.90;;;;;;5076490;28;20198;-83
2023/06/17 01:11:16;;;;;;;7.45;3.92;;;15.60;99.90;;;;;;5084809;28;20261;-84
2023/06/17 01:13:54;;;;;;;4.18;3.30;;;15.80;99.90;;;;;;5075568;28;20537;-83
2023/06/17 01:16:27;;;;;;;7.75;3.80;;;15.90;99.90;;;;;;5067320;28;20207;-83
2023/06/17 01:18:59;;;;;;;6.72;3.33;;;16.00;99.90;;;;;;5075002;28;20582;-82
2023/06/17 01:21:31;;;;;;;6.78;3.50;;;16.20;99.90;;;;;;5074089;28;20619;-83
2023/06/17 01:24:02;;;;;;;6.55;3.78;;;16.30;99.90;;;;;;5081607;28;20192;-83
2023/06/17 01:26:38;;;;;;;6.15;3.63;;;16.30;99.90;;;;;;5074890;28;20291;-83
2023/06/17 01:29:09;;;;;;;7.28;3.55;;;16.40;99.90;;;;;;5075434;28;20554;-83
2023/06/17 01:31:48;;;;;;;7.07;3.70;;;16.40;99.90;;;;;;5074744;28;20250;-83
2023/06/17 01:34:21;;;;;;;5.10;3.38;;;16.50;99.90;;;;;;5074724;28;20575;-83
2023/06/17 01:36:56;;;;;;;5.80;3.25;;;16.40;99.90;;;;;;5074298;28;20200;-83
2023/06/17 01:39:29;;;;;;;5.15;3.33;;;16.60;99.90;;;;;;5090063;28;20570;-84
2023/06/17 01:42:04;;;;;;;8.82;3.33;;;16.60;99.90;;;;;;5074732;28;20211;-84
2023/06/17 01:44:36;;;;;;;5.05;2.90;;;16.60;99.90;;;;;;5075103;28;20206;-83
2023/06/17 01:47:09;;;;;;;5.80;3.50;;;16.70;99.90;;;;;;5074935;28;20210;-83
2023/06/17 01:49:41;;;;;;;4.90;3.08;;;16.80;99.90;;;;;;5080769;28;20207;-83
2023/06/17 01:52:15;;;;;;;4.43;3.08;;;16.80;99.90;;;;;;5094879;28;20208;-83
2023/06/17 01:54:46;;;;;;;5.57;3.10;;;16.90;99.90;;;;;;5074169;28;20196;-83
2023/06/17 01:57:19;;;;;;;4.80;3.33;;;17.00;99.90;;;;;;5074093;28;20226;-82
2023/06/17 01:59:50;;;;;;;5.28;3.20;;;17.10;99.90;;;;;;5074259;28;20204;-82
2023/06/17 02:02:21;;;;;;;3.97;2.75;;;17.20;99.90;;;;;;5069260;28;20197;-82
2023/06/17 02:04:53;;;;;;;5.07;2.90;;;17.40;99.90;;;;;;5054833;28;20207;-82
2023/06/17 02:07:25;;;;;;;5.35;3.00;;;17.30;99.90;;;;;;5089655;28;20230;-82
2023/06/17 02:09:56;;;;;;;4.30;2.53;;;17.40;99.90;;;;;;5075378;28;20224;-82
2023/06/17 02:12:29;;;;;;;3.25;2.78;;;17.50;99.90;;;;;;5072722;28;20677;-82
2023/06/17 02:15:01;;;;;;;5.47;3.00;;;17.60;99.90;;;;;;5073145;28;20285;-82
2023/06/17 02:17:32;;;;;;;4.53;2.85;;;17.70;99.90;;;;;;5070174;28;20192;-82
2023/06/17 02:20:05;;;;;;;3.90;2.53;;;17.90;99.90;;;;;;5053209;28;20655;-82
2023/06/17 02:22:36;;;;;;;7.13;3.00;;;18.00;99.90;;;;;;5053211;28;20254;-83
2023/06/17 02:25:08;;;;;;;4.93;3.00;;;18.20;99.90;;;;;;5066845;28;20188;-83
2023/06/17 02:27:41;;;;;;;6.20;2.92;;;18.10;99.90;;;;;;5073437;28;20196;-83
2023/06/17 02:30:13;;;;;;;4.13;2.63;;;18.20;99.90;;;;;;5073563;28;20311;-83
2023/06/17 02:32:45;;;;;;;3.55;2.70;;;18.30;99.90;;;;;;5072940;28;20550;-83
2023/06/17 02:35:16;;;;;;;3.83;2.60;;;18.30;99.90;;;;;;5073278;28;20196;-83
2023/06/17 02:37:47;;;;;;;9.00;2.90;;;18.40;99.90;;;;;;5073189;28;20203;-82
2023/06/17 02:40:18;;;;;;;3.75;2.60;;;18.50;99.90;;;;;;5072174;28;20211;-83
2023/06/17 02:42:51;;;;;;;4.70;2.55;;;18.50;99.90;;;;;;5070402;28;20678;-82
2023/06/17 02:45:22;;;;;;;5.20;3.08;;;18.60;99.90;;;;;;5073267;28;20207;-83
2023/06/17 02:47:53;;;;;;;4.32;2.67;;;18.60;99.90;;;;;;5081638;28;20197;-82
2023/06/17 02:50:25;;;;;;;3.78;2.67;;;18.70;99.90;;;;;;5075677;28;20682;-83
2023/06/17 02:52:58;;;;;;;5.45;2.67;;;18.70;99.90;;;;;;5084522;28;20223;-82
2023/06/17 02:55:29;;;;;;;3.92;2.85;;;18.80;99.90;;;;;;5094487;28;20223;-83
2023/06/17 02:58:03;;;;;;;5.60;2.90;;;18.80;99.90;;;;;;5085571;28;20230;-83
2023/06/17 03:00:36;;;;;;;4.63;2.53;;;18.80;99.90;;;;;;5095309;28;20199;-83
2023/06/17 03:03:08;;;;;;;3.63;2.17;;;18.80;99.90;;;;;;5072683;28;20196;-83
2023/06/17 03:05:41;;;;;;;3.55;2.35;;;18.80;99.90;;;;;;5075978;28;20202;-82
2023/06/17 03:08:14;;;;;;;4.05;2.28;;;18.90;99.90;;;;;;5079521;28;20212;-83
2023/06/17 03:10:45;;;;;;;4.70;2.58;;;18.90;99.90;;;;;;5074853;28;20582;-82
2023/06/17 03:13:21;;;;;;;3.85;2.47;;;19.00;99.90;;;;;;5073473;28;20223;-83
2023/06/17 03:15:53;;;;;;;4.60;2.65;;;18.90;99.90;;;;;;5073977;28;20184;-84
2023/06/17 03:18:28;;;;;;;3.83;2.40;;;18.90;99.90;;;;;;5084715;28;20654;-83
2023/06/17 03:21:01;;;;;;;4.53;2.30;;;18.90;99.90;;;;;;5058678;28;20196;-82
2023/06/17 03:23:33;;;;;;;3.85;2.00;;;19.00;99.90;;;;;;5053642;28;20203;-82
2023/06/17 03:26:04;;;;;;;3.90;1.92;;;18.90;99.90;;;;;;5052980;28;20219;-82
2023/06/17 03:28:38;;;;;;;2.47;2.00;;;19.10;99.90;;;;;;5068657;28;20193;-82
2023/06/17 03:31:10;;;;;;;5.00;2.45;;;19.10;99.90;;;;;;5089812;28;20569;-81
2023/06/17 03:33:41;;;;;;;4.35;2.28;;;19.10;99.90;;;;;;5092553;28;20215;-82
2023/06/17 03:36:12;;;;;;;7.28;2.22;;;19.00;99.90;;;;;;5084589;28;20195;-82
2023/06/17 03:38:44;;;;;;;2.63;2.10;;;19.00;99.90;;;;;;5072214;28;20578;-83
2023/06/17 03:41:15;;;;;;;5.28;2.63;;;19.10;99.90;;;;;;5072746;28;20273;-84
2023/06/17 03:43:48;;;;;;;5.63;2.58;;;19.10;99.90;;;;;;5089606;28;20195;-83
2023/06/17 03:46:19;;;;;;;3.28;2.17;;;19.10;99.90;;;;;;5092429;28;20206;-82
2023/06/17 03:48:50;;;;;;;4.32;2.22;;;19.10;99.90;;;;;;5090538;28;20206;-83
2023/06/17 03:51:21;;;;;;;4.35;2.17;;;19.10;99.90;;;;;;5072239;28;20315;-82
2023/06/17 03:53:53;;;;;;;4.72;2.00;;;19.00;99.90;;;;;;5072325;28;20192;-82
2023/06/17 03:56:26;;;;;;;4.20;1.75;;;19.00;99.90;;;;;;5072566;28;20204;-83
2023/06/17 03:58:59;;;;;;;2.80;1.92;;;19.00;99.90;;;;;;5073331;28;20191;-83
2023/06/17 04:01:30;;;;;;;4.00;2.10;;;19.00;99.90;;;;;;5091402;28;20206;-85
2023/06/17 04:04:01;;;;;;;4.03;2.38;;;18.90;99.90;;;;;;5072903;28;20202;-83
2023/06/17 04:06:33;;;;;;;3.50;2.10;;;18.80;99.90;;;;;;5071945;28;20202;-84
2023/06/17 04:09:05;;;;;;;4.53;2.05;;;18.80;99.90;;;;;;5089383;28;20201;-84
2023/06/17 04:11:36;;;;;;;5.35;2.03;;;18.80;99.90;;;;;;5071270;28;20337;-83
2023/06/17 04:14:09;;;;;;;2.78;1.80;;;18.80;99.90;;;;;;5072131;28;20196;-84
2023/06/17 04:16:41;;;;;;;5.90;2.20;;;18.80;99.90;;;;;;5072059;28;20200;-83
2023/06/17 04:19:13;;;;;;;5.65;2.35;;;18.80;99.90;;;;;;5066365;28;20196;-83
2023/06/17 04:21:45;;;;;;;3.13;1.80;;;18.80;99.90;;;;;;5071920;28;20211;-83
2023/06/17 04:24:18;;;;;;;4.65;1.90;;;18.70;99.90;;;;;;5073503;28;20645;-84
2023/06/17 04:26:52;;;;;;;3.47;1.92;;;18.70;99.90;;;;;;5079286;28;20698;-84
2023/06/17 04:29:29;;;;;;;4.32;2.33;;;18.60;99.90;;;;;;5074215;28;20200;-85
2023/06/17 04:32:01;;;;;;;3.38;1.95;;;18.60;99.90;;;;;;5071717;28;20695;-83
2023/06/17 04:34:34;;;;;;;3.28;1.90;;;18.60;99.90;;;;;;5072070;28;20196;-84
2023/06/17 04:37:05;;;;;;;3.00;1.90;;;18.60;99.90;;;;;;5072116;28;20192;-84
2023/06/17 04:39:36;;;;;;;3.47;1.83;;;18.50;99.90;;;;;;5072251;28;20203;-84
2023/06/17 04:42:09;;;;;;;3.30;2.28;;;18.50;99.90;;;;;;5075851;28;20285;-84
2023/06/17 04:44:42;;;;;;;5.88;1.90;;;18.50;99.90;;;;;;5076091;28;20207;-85
2023/06/17 04:47:13;;;;;;;3.17;1.60;;;18.50;99.90;;;;;;5076123;28;20192;-85
2023/06/17 04:49:45;;;;;;;2.50;1.58;;;18.50;99.90;;;;;;5076664;28;20246;-84
2023/06/17 04:52:19;;;;;;;3.72;1.45;;;18.50;99.90;;;;;;5075411;28;20227;-84
2023/06/17 04:54:52;;;;;;;2.60;1.13;;;18.50;99.90;;;;;;5083155;28;20226;-84
2023/06/17 04:57:23;;;;;;;3.63;1.30;;;18.50;99.90;;;;;;5076820;28;20215;-85
2023/06/17 04:59:57;;;;;;;2.25;1.23;;;18.50;99.90;;;;;;5076094;28;20204;-84
2023/06/17 05:02:28;;;;;;;2.50;1.40;;;18.50;99.90;;;;;;5077605;28;20273;-85
2023/06/17 05:05:01;;;;;;;2.08;1.25;;;18.50;99.90;;;;;;5077701;28;20643;-84
2023/06/17 05:07:32;;;;;;;2.03;1.27;;;18.50;99.90;;;;;;5069537;28;20685;-85
2023/06/17 05:10:03;;;;;;;3.65;1.30;;;18.50;99.90;;;;;;5090990;28;20196;-85
2023/06/17 05:12:35;;;;;;;3.47;1.30;;;18.50;99.90;;;;;;5086344;28;20234;-85
2023/06/17 05:15:09;;;;;;;2.22;1.25;;;18.50;99.90;;;;;;5074023;28;20194;-84
2023/06/17 05:17:40;;;;;;;2.45;1.40;;;18.50;99.90;;;;;;5086554;28;20204;-84
2023/06/17 05:20:12;;;;;;;2.42;1.30;;;18.50;99.90;;;;;;5075112;28;20688;-84
2023/06/17 05:22:43;;;;;;;3.03;1.17;;;18.60;99.90;;;;;;5076275;28;20200;-85
2023/06/17 05:25:19;;;;;;;3.70;1.40;;;18.60;99.90;;;;;;5076042;28;20191;-84
2023/06/17 05:27:51;;;;;;;1.95;1.00;;;18.60;99.90;;;;;;5078121;28;20201;-85
2023/06/17 05:30:25;;;;;;;1.98;0.90;;;18.60;99.90;;;;;;5092495;28;20199;-85
2023/06/17 05:32:56;;;;;;;1.75;1.00;;;18.60;99.90;;;;;;5092438;28;20198;-85
2023/06/17 05:35:28;;;;;;;2.15;1.10;;;18.60;99.90;;;;;;5075406;28;20192;-84
2023/06/17 05:38:02;;;;;;;3.63;1.10;;;18.60;99.90;;;;;;5088206;28;20283;-84
2023/06/17 05:40:33;;;;;;;3.00;1.35;;;18.60;99.90;;;;;;5077362;28;20195;-87
2023/06/17 05:43:04;;;;;;;2.97;1.42;;;18.60;99.90;;;;;;5075702;28;20222;-86
2023/06/17 05:45:40;;;;;;;2.28;1.20;;;18.60;99.90;;;;;;5084614;28;20188;-86
2023/06/17 05:48:12;;;;;;;3.13;1.35;;;18.60;99.90;;;;;;5088748;28;20196;-85
2023/06/17 05:50:43;;;;;;;3.42;1.25;;;18.60;99.90;;;;;;5085921;28;20242;-86
2023/06/17 05:53:15;;;;;;;2.47;1.40;;;18.60;99.90;;;;;;5041904;28;20201;-81
2023/06/17 05:55:46;;;;;;;4.40;1.50;;;18.60;99.90;;;;;;5075050;28;20224;-85
2023/06/17 05:58:17;;;;;;;3.25;1.25;;;18.60;99.90;;;;;;5075222;28;20204;-85
2023/06/17 06:00:52;;;;;;;3.10;1.25;;;18.70;99.90;;;;;;5074936;28;20200;-85
2023/06/17 06:03:23;;;;;;;3.25;1.30;;;18.60;99.90;;;;;;5074380;28;20206;-84
2023/06/17 06:05:54;;;;;;;1.92;0.98;;;18.60;99.90;;;;;;5074961;28;20185;-84
2023/06/17 06:08:25;;;;;;;3.00;1.30;;;18.60;99.90;;;;;;5074585;28;20196;-85
2023/06/17 06:10:57;;;;;;;1.90;0.98;;;18.60;99.90;;;;;;5074448;28;20710;-84
2023/06/17 06:13:30;;;;;;;3.15;1.13;;;18.60;99.90;;;;;;5075166;28;20191;-86
2023/06/17 06:16:03;;;;;;;2.85;1.10;;;18.60;99.90;;;;;;5075428;28;20200;-84
2023/06/17 06:18:34;;;;;;;2.15;1.00;;;18.50;99.90;;;;;;5079714;28;20568;-85
2023/06/17 06:21:05;;;;;;;5.07;1.70;;;18.50;99.90;;;;;;5076101;28;20188;-86
2023/06/17 06:23:38;;;;;;;1.45;1.02;;;18.50;99.90;;;;;;5056546;28;20227;-85
2023/06/17 06:26:09;;;;;;;2.90;1.20;;;18.50;99.90;;;;;;5073990;28;20192;-85
2023/06/17 06:28:40;;;;;;;11.77;3.70;;;18.50;99.90;;;;;;5082180;28;20590;-85
2023/06/17 06:31:13;;;;;;;3.08;1.30;;;18.40;99.90;;;;;;5080825;28;20215;-85
2023/06/17 06:33:44;;;;;;;4.40;1.13;;;18.30;99.90;;;;;;5074493;28;20192;-85
2023/06/17 06:36:16;;;;;;;2.15;1.08;;;18.20;99.90;;;;;;5077615;28;20200;-86
2023/06/17 06:38:47;;;;;;;4.15;0.90;;;18.10;99.90;;;;;;5079480;28;20214;-84
2023/06/17 06:41:19;;;;;;;3.75;1.25;;;18.00;99.90;;;;;;5091850;28;20241;-84
2023/06/17 06:43:52;;;;;;;4.35;1.30;;;17.90;99.90;;;;;;5087599;28;20660;-83
2023/06/17 06:46:25;;;;;;;3.22;1.35;;;17.90;99.90;;;;;;5095034;28;20195;-85
2023/06/17 06:48:57;;;;;;;2.65;0.90;;;17.80;99.90;;;;;;5088868;28;20188;-84
2023/06/17 06:51:28;;;;;;;1.33;0.93;;;17.70;99.90;;;;;;5081739;28;20314;-83
2023/06/17 06:53:59;;;;;;;1.17;0.75;;;17.70;99.90;;;;;;5065769;28;20562;-84
2023/06/17 06:56:32;;;;;;;3.47;1.00;;;17.60;99.90;;;;;;5055567;28;20227;-85
2023/06/17 06:59:03;;;;;;;1.67;0.90;;;17.50;99.90;;;;;;5062218;28;20284;-86
2023/06/17 07:01:36;;;;;;;2.38;0.90;;;17.50;99.90;;;;;;5074978;28;20504;-87
2023/06/17 07:04:10;;;;;;;3.00;0.98;;;17.40;99.90;;;;;;5073189;28;20243;-82
2023/06/17 07:06:41;;;;;;;1.98;0.90;;;17.40;99.90;;;;;;5073806;28;20196;-83
2023/06/17 07:09:12;;;;;;;1.38;0.77;;;17.30;99.90;;;;;;5074279;28;20755;-84
2023/06/17 07:11:43;;;;;;;2.25;1.00;;;17.20;99.90;;;;;;5072402;28;20579;-85
2023/06/17 07:14:16;;;;;;;1.85;0.88;;;17.20;99.90;;;;;;5072771;28;20192;-84
2023/06/17 07:16:49;;;;;;;1.42;1.00;;;17.10;99.90;;;;;;5072954;28;20542;-83
2023/06/17 07:19:20;;;;;;;1.80;1.10;;;17.20;99.90;;;;;;5074146;28;20212;-82
2023/06/17 07:21:51;;;;;;;4.45;1.40;;;17.10;99.90;;;;;;5077230;28;20204;-83
2023/06/17 07:24:22;;;;;;;2.13;1.15;;;17.10;99.90;;;;;;5073283;28;20223;-84
2023/06/17 07:26:53;;;;;;;3.08;1.23;;;17.00;99.90;;;;;;5075977;28;20199;-84
2023/06/17 07:29:25;;;;;;;2.10;1.00;;;17.00;99.90;;;;;;5053091;28;20575;-83
2023/06/17 07:31:58;;;;;;;2.42;1.17;;;16.90;99.90;;;;;;5053046;28;20586;-84
2023/06/17 07:34:29;;;;;;;3.08;1.40;;;16.90;99.90;;;;;;5064784;28;20200;-83
2023/06/17 07:37:00;;;;;;;2.10;1.35;;;16.90;99.90;;;;;;5073250;28;20270;-84
2023/06/17 07:39:33;;;;;;;2.25;1.60;;;16.80;99.90;;;;;;5073123;28;20289;-84
2023/06/17 07:42:06;;;;;;;2.05;1.48;;;16.80;99.90;;;;;;5072306;28;20191;-86
2023/06/17 07:44:37;;;;;;;2.28;1.45;;;16.80;99.90;;;;;;5074997;28;20671;-85
2023/06/17 07:47:11;;;;;;;4.65;1.60;;;16.80;99.90;;;;;;5092883;28;20230;-86
2023/06/17 07:49:42;;;;;;;2.75;1.50;;;16.70;99.90;;;;;;5092985;28;20202;-85
2023/06/17 07:52:13;;;;;;;2.50;1.63;;;16.70;99.90;;;;;;5065976;28;20224;-85
2023/06/17 07:54:44;;;;;;;2.92;1.40;;;16.60;99.90;;;;;;5058562;28;20631;-86
2023/06/17 07:57:15;;;;;;;2.83;1.48;;;16.70;99.90;;;;;;5073005;28;20588;-85
2023/06/17 07:59:47;;;;;;;2.47;1.45;;;16.60;99.90;;;;;;5074133;28;20718;-86
2023/06/17 08:02:21;;;;;;;4.03;1.48;;;16.60;99.90;;;;;;5071740;28;20192;-84
2023/06/17 08:04:52;;;;;;;2.38;1.70;;;16.60;99.90;;;;;;5057493;28;21082;-85
2023/06/17 08:07:26;;;;;;;3.03;1.42;;;16.60;99.90;;;;;;5072281;28;20198;-85
2023/06/17 08:09:57;;;;;;;2.38;1.52;;;16.50;99.90;;;;;;5075207;28;20272;-85
2023/06/17 08:12:28;;;;;;;3.53;1.50;;;16.50;99.90;;;;;;5088252;28;20227;-86
2023/06/17 08:15:00;;;;;;;3.28;1.60;;;16.50;99.90;;;;;;5052839;28;20656;-86
2023/06/17 08:17:38;;;;;;;3.38;1.45;;;16.50;99.90;;;;;;5063634;28;20259;-86
2023/06/17 08:20:11;;;;;;;2.72;1.73;;;16.50;99.90;;;;;;5075111;28;20192;-87
2023/06/17 08:22:43;;;;;;;3.78;2.22;;;16.40;99.90;;;;;;5057415;28;20200;-87
2023/06/17 08:25:14;;;;;;;6.63;4.22;;;16.40;99.90;;;;;;5075146;28;20191;-86
2023/06/17 08:27:50;;;;;;;7.53;5.20;;;16.40;99.90;;;;;;5074733;28;20524;-86
2023/06/17 08:30:22;;;;;;;19.42;12.40;;;16.40;99.90;;;;;;5076253;28;20199;-85
2023/06/17 08:32:56;;;;;;;20.70;13.65;;;16.40;99.90;;;;;;5075150;28;20228;-85
2023/06/17 08:35:28;;;;;;;21.73;12.60;;;16.40;99.90;;;;;;5074959;28;20203;-86
2023/06/17 08:37:59;;;;;;;15.60;9.70;;;16.30;99.90;;;;;;5074935;28;20184;-85
2023/06/17 08:40:31;;;;;;;12.23;7.45;;;16.30;99.90;;;;;;5082849;28;20191;-85
2023/06/17 08:43:05;;;;;;;11.88;6.88;;;16.30;99.90;;;;;;5083662;28;20198;-85
2023/06/17 08:45:37;;;;;;;8.50;6.05;;;16.30;99.90;;;;;;5081837;28;20198;-85
2023/06/17 08:48:14;;;;;;;9.18;6.53;;;16.20;99.90;;;;;;5104531;28;20195;-83
2023/06/17 08:50:49;;;;;;;6.57;4.03;;;16.20;99.90;;;;;;5095328;28;20187;-85
2023/06/17 08:53:22;;;;;;;4.78;2.70;;;16.20;99.90;;;;;;5059007;28;20263;-84
2023/06/17 08:55:53;;;;;;;4.63;2.25;;;16.20;99.90;;;;;;5087054;28;20223;-84
2023/06/17 08:58:26;;;;;;;3.22;2.38;;;16.20;99.90;;;;;;5064598;28;20191;-85
2023/06/17 09:01:01;;;;;;;4.18;2.58;;;16.20;99.90;;;;;;5084095;28;20200;-85
2023/06/17 09:03:39;;;;;;;5.30;3.10;;;16.10;99.90;;;;;;5083290;28;20175;-84
2023/06/17 09:06:23;;;;;;;8.65;4.05;;;16.10;99.90;;;;;;5091815;28;20196;-84
2023/06/17 09:08:57;;;;;;;6.40;4.50;;;16.10;99.90;;;;;;5084403;28;20275;-84
2023/06/17 09:11:29;;;;;;;7.25;3.35;;;16.10;99.90;;;;;;5089639;28;20225;-84
2023/06/17 09:14:01;;;;;;;4.22;2.65;;;16.10;99.90;;;;;;5090870;28;20192;-85
2023/06/17 09:16:33;;;;;;;3.10;2.30;;;16.10;99.90;;;;;;5066020;28;20211;-85
2023/06/17 09:19:08;;;;;;;4.35;2.55;;;16.10;99.90;;;;;;5073944;28;20200;-84
2023/06/17 09:21:41;;;;;;;3.78;2.60;;;16.10;99.90;;;;;;5071347;28;20237;-83
2023/06/17 09:24:13;;;;;;;5.30;4.25;;;16.10;99.90;;;;;;5057951;28;20473;-83
2023/06/17 09:26:45;;;;;;;9.88;6.65;;;16.10;99.90;;;;;;5072819;28;20199;-83
2023/06/17 09:29:16;;;;;;;14.90;10.32;;;16.10;99.90;;;;;;5074160;28;20202;-83
2023/06/17 09:31:51;;;;;;;12.88;8.52;;;16.10;99.90;;;;;;5081951;28;20192;-83
2023/06/17 09:34:25;;;;;;;9.93;6.55;;;16.10;99.90;;;;;;5084869;28;20206;-84
2023/06/17 09:36:59;;;;;;;6.53;4.80;;;16.10;99.90;;;;;;5073692;28;20282;-83
2023/06/17 09:39:34;;;;;;;6.18;4.57;;;16.10;99.90;;;;;;5082303;28;20195;-83
2023/06/17 09:42:12;;;;;;;7.85;4.90;;;16.10;99.90;;;;;;5074057;28;20196;-83
2023/06/17 09:44:44;;;;;;;23.13;18.70;;;16.10;99.90;;;;;;5073854;28;20264;-83
2023/06/17 09:47:17;;;;;;;11.50;8.98;;;16.10;99.90;;;;;;5073499;28;20184;-82
2023/06/17 09:49:50;;;;;;;10.48;8.82;;;16.00;99.90;;;;;;5083749;28;20200;-83
2023/06/17 09:52:22;;;;;;;12.02;8.18;;;16.00;99.90;;;;;;5083410;28;20215;-83
2023/06/17 09:54:54;;;;;;;19.50;15.85;;;16.00;99.90;;;;;;5074954;28;20202;-83
2023/06/17 09:57:26;;;;;;;23.52;19.30;;;15.90;99.90;;;;;;5074574;28;20761;-86
2023/06/17 09:59:59;;;;;;;22.40;20.10;;;15.90;99.90;;;;;;5075235;28;20200;-87
2023/06/17 10:02:31;;;;;;;17.98;15.38;;;15.90;99.90;;;;;;5074445;28;20188;-82
2023/06/17 10:05:04;;;;;;;8.45;7.55;;;15.80;99.90;;;;;;5073937;28;20679;-86
2023/06/17 10:07:37;;;;;;;8.40;5.82;;;15.80;99.90;;;;;;5073851;28;20687;-86
2023/06/17 10:10:10;;;;;;;5.47;4.40;;;15.80;99.90;;;;;;5074156;28;20261;-84
2023/06/17 10:12:45;;;;;;;7.30;5.43;;;15.80;99.90;;;;;;5072718;28;20226;-85
2023/06/17 10:15:20;;;;;;;6.60;5.50;;;15.80;99.90;;;;;;5075257;28;20200;-85
2023/06/17 10:17:53;;;;;;;8.32;6.88;;;15.70;99.90;;;;;;5074133;28;20662;-86
2023/06/17 10:20:31;;;;;;;9.07;8.02;;;15.80;99.90;;;;;;5073801;28;20210;-85
2023/06/17 10:23:04;;;;;;;10.20;7.95;;;15.70;99.90;;;;;;5076999;28;20621;-86
2023/06/17 10:25:38;;;;;;;8.63;7.10;;;15.70;99.90;;;;;;5083916;28;20222;-85
2023/06/17 10:28:10;;;;;;;8.43;7.47;;;15.70;99.90;;;;;;5082523;28;20223;-85
2023/06/17 10:30:51;;;;;;;8.50;7.60;;;15.60;99.90;;;;;;5069029;28;20211;-86
2023/06/17 10:33:30;;;;;;;7.78;6.65;;;15.60;99.90;;;;;;5075873;28;20212;-86
2023/06/17 10:36:12;;;;;;;9.50;7.45;;;15.60;99.90;;;;;;5075095;28;20204;-84
2023/06/17 10:38:44;;;;;;;10.77;9.50;;;15.50;99.90;;;;;;5077593;28;20202;-84
2023/06/17 10:41:15;;;;;;;10.13;6.75;;;15.50;99.90;;;;;;5084833;28;20210;-84
2023/06/17 10:43:49;;;;;;;8.18;4.20;;;15.50;99.90;;;;;;5074028;28;20199;-86
2023/06/17 10:46:27;;;;;;;5.40;3.28;;;15.40;99.90;;;;;;5079997;28;20199;-86
2023/06/17 10:49:02;;;;;;;3.38;2.58;;;15.30;99.90;;;;;;5079223;28;20238;-86
2023/06/17 10:51:36;;;;;;;4.07;2.50;;;15.30;99.90;;;;;;5096287;28;20200;-87
2023/06/17 10:54:07;;;;;;;3.92;2.10;;;15.30;99.90;;;;;;5094637;28;20228;-85
2023/06/17 10:56:50;;;;;;;4.05;2.50;;;15.30;99.90;;;;;;5073921;28;20208;-85
2023/06/17 10:59:27;;;;;;;2.28;1.98;;;15.30;99.90;;;;;;5072012;28;20203;-85
2023/06/17 11:02:03;;;;;;;4.63;2.30;;;15.30;99.90;;;;;;5074211;28;20196;-86
2023/06/17 11:04:36;;;;;;;3.83;2.45;;;15.30;99.90;;;;;;5089353;28;20564;-85
2023/06/17 11:07:11;;;;;;;4.35;2.22;;;15.20;99.90;;;;;;5096187;28;20697;-87
2023/06/17 11:09:42;;;;;;;3.63;2.33;;;15.20;99.90;;;;;;5096930;28;20194;-86
2023/06/17 11:12:16;;;;;;;2.35;2.10;;;15.20;99.90;;;;;;5094398;28;20654;-86
2023/06/17 11:14:48;;;;;;;2.58;1.90;;;15.30;99.90;;;;;;5081980;28;20196;-86
2023/06/17 11:17:19;;;;;;;15.25;10.38;;;15.20;99.90;;;;;;5089398;28;20183;-85
2023/06/17 11:19:52;;;;;;;7.32;4.25;;;15.30;99.90;;;;;;5108060;28;20250;-86
2023/06/17 11:22:27;;;;;;;5.30;2.30;;;15.20;99.90;;;;;;5090347;28;20201;-87
2023/06/17 11:25:00;;;;;;;3.03;2.35;;;15.20;99.90;;;;;;5080891;28;20678;-85
2023/06/17 11:27:32;;;;;;;3.80;2.40;;;15.20;99.90;;;;;;5084661;28;20223;-84
2023/06/17 11:30:04;;;;;;;2.95;2.00;;;15.20;99.90;;;;;;5082489;28;20245;-83
2023/06/17 11:32:35;;;;;;;2.97;2.20;;;15.30;99.90;;;;;;5072876;28;20611;-86
2023/06/17 11:35:07;;;;;;;3.13;2.53;;;15.20;99.90;;;;;;5059953;28;20192;-84
2023/06/17 11:37:41;;;;;;;3.53;2.30;;;15.20;99.90;;;;;;5072925;28;20204;-84
2023/06/17 11:40:18;;;;;;;3.72;2.20;;;15.30;99.90;;;;;;5079583;28;20263;-84
2023/06/17 11:42:49;;;;;;;3.03;2.05;;;15.20;99.90;;;;;;5078795;28;20684;-86
2023/06/17 11:45:22;;;;;;;2.50;2.20;;;15.20;99.90;;;;;;5077792;28;20200;-86
2023/06/17 11:47:53;;;;;;;3.45;2.08;;;15.10;99.90;;;;;;5078377;28;20206;-85
2023/06/17 11:50:30;;;;;;;3.70;2.17;;;15.20;99.90;;;;;;5070936;28;20201;-83
2023/06/17 11:53:05;;;;;;;2.85;1.77;;;15.10;99.90;;;;;;5089186;28;20721;-80
2023/06/17 11:55:38;;;;;;;2.50;1.80;;;15.10;99.90;;;;;;5067215;28;20220;-82
2023/06/17 11:58:10;;;;;;;4.05;1.88;;;15.10;99.90;;;;;;5075384;28;20226;-84
2023/06/17 12:00:41;;;;;;;5.88;2.13;;;15.10;99.90;;;;;;5072224;28;20207;-83
2023/06/17 12:03:15;;;;;;;2.45;1.90;;;15.10;99.90;;;;;;5072454;28;20301;-84
2023/06/17 12:05:46;;;;;;;2.30;1.63;;;15.00;99.90;;;;;;5071950;28;20200;-85
2023/06/17 12:08:19;;;;;;;2.38;1.80;;;14.90;99.90;;;;;;5080024;28;20192;-84
2023/06/17 12:10:51;;;;;;;2.40;1.60;;;14.90;99.90;;;;;;5071919;28;20665;-83
2023/06/17 12:13:22;;;;;;;1.90;1.50;;;15.00;99.90;;;;;;5071217;28;20310;-84
2023/06/17 12:15:54;;;;;;;1.77;1.40;;;15.00;99.90;;;;;;5074386;28;20204;-83
2023/06/17 12:18:30;;;;;;;2.47;1.70;;;15.00;99.90;;;;;;5071899;28;20677;-82
2023/06/17 12:21:01;;;;;;;1.67;1.48;;;15.00;99.90;;;;;;5060605;28;20223;-84
2023/06/17 12:23:34;;;;;;;2.75;1.50;;;15.00;99.90;;;;;;5060808;28;20279;-84
2023/06/17 12:26:06;;;;;;;2.30;1.70;;;15.00;99.90;;;;;;5055976;28;20197;-84
2023/06/17 12:28:37;;;;;;;2.67;1.60;;;15.00;99.90;;;;;;5050892;28;20193;-84
2023/06/17 12:31:08;;;;;;;1.67;1.45;;;15.00;99.90;;;;;;5051799;28;20201;-83
2023/06/17 12:33:45;;;;;;;2.83;1.70;;;14.90;99.90;;;;;;5052795;28;20231;-84
2023/06/17 12:36:18;;;;;;;2.55;1.50;;;14.90;99.90;;;;;;5052818;28;20214;-85
2023/06/17 12:38:53;;;;;;;1.55;1.30;;;14.90;99.90;;;;;;5075545;28;20574;-86
2023/06/17 12:41:24;;;;;;;2.78;1.65;;;14.90;99.90;;;;;;5071604;28;20248;-85
2023/06/17 12:43:55;;;;;;;3.58;1.88;;;14.90;99.90;;;;;;5072232;28;20505;-86
2023/06/17 12:46:26;;;;;;;2.10;1.48;;;14.90;99.90;;;;;;5072221;28;20211;-85
2023/06/17 12:48:57;;;;;;;2.88;1.75;;;14.90;99.90;;;;;;5086708;28;20211;-86
2023/06/17 12:51:29;;;;;;;2.47;1.60;;;14.90;99.90;;;;;;5093991;28;20203;-85
2023/06/17 12:54:03;;;;;;;3.10;1.90;;;14.90;99.90;;;;;;5096725;28;20558;-86
2023/06/17 12:56:34;;;;;;;4.88;2.20;;;14.90;99.90;;;;;;5103430;28;20663;-86
2023/06/17 12:59:05;;;;;;;2.75;2.00;;;14.80;99.90;;;;;;5082029;28;20198;-85
2023/06/17 13:01:36;;;;;;;3.38;2.10;;;14.80;99.90;;;;;;5077703;28;20184;-86
2023/06/17 13:04:09;;;;;;;2.00;1.58;;;14.80;99.90;;;;;;5096391;28;20199;-86
2023/06/17 13:06:41;;;;;;;2.55;1.50;;;14.80;99.90;;;;;;5075539;28;20188;-85
2023/06/17 13:09:15;;;;;;;3.08;1.70;;;14.70;99.90;;;;;;5075335;28;20529;-84
2023/06/17 13:11:48;;;;;;;2.58;1.40;;;14.70;99.90;;;;;;5075696;28;20618;-86